»·PEaware :: N171MA KSIY-KPDX

N171MA :: KSIY-KPDX

FLIGHT INFORMATION

Flight Status: Arrived
Operator: Privately registered:
United States
More flights under this callsign
Pilot: Tim M. (868)
Aircraft: CIRRUS SR-22 TURBO
(S22T)
More flights by this aircraft type
Origin: KSIY Siskiyou Co
United States
Destination: KPDX Portland Intl
United States
More flights between these airports :: More routes between these airports
Route: +OED MOXEE OCITY3
File this flight plan on PilotEdge
Remarks:
Altitude:
(Current/Filed)
16,000ft
Speed:
(Current/Filed)
178kts
Departed: 12-Aug-20 07:06 PM
Arrived: 12-Aug-20 08:34 PM
Distance/Time
Traveled:
228nm/1:28
Distance/Time
To Go:
Arrived

Flight Plot

Page will automatically refresh every two minutes.

Flight plan parsing failed; only flown route is shown


Map Options




Map Legend


Flown Route
Filed Route
Departure Airport
Arrival Airport
Navaid (VOR, NDB)
Fix

Horizontal Profiles

Position Reports

Time Latitude Longitude Heading Altitude Ground
Speed
12-Aug-20 18:45 41.780846 -122.470772 101 2648ft 0kts
12-Aug-20 18:46 41.780846 -122.470772 101 2648ft 0kts
12-Aug-20 18:47 41.780846 -122.470772 101 2648ft 0kts
12-Aug-20 18:48 41.780846 -122.470772 101 2648ft 0kts
12-Aug-20 18:49 41.780846 -122.470772 101 2648ft 0kts
12-Aug-20 18:50 41.780846 -122.470772 101 2648ft 0kts
12-Aug-20 18:51 41.780846 -122.470772 101 2648ft 0kts
12-Aug-20 18:52 41.780703 -122.470389 162 2648ft 4kts
12-Aug-20 18:53 41.778008 -122.470988 189 2644ft 14kts
12-Aug-20 18:54 41.772957 -122.472365 213 2635ft 11kts
12-Aug-20 18:55 41.772788 -122.472313 47 2635ft 0kts
12-Aug-20 18:56 41.772788 -122.472313 47 2635ft 0kts
12-Aug-20 18:57 41.772788 -122.472313 47 2635ft 0kts
12-Aug-20 18:58 41.772788 -122.472313 47 2635ft 0kts
12-Aug-20 18:59 41.772788 -122.472313 47 2635ft 0kts
12-Aug-20 19:00 41.772788 -122.472313 47 2635ft 0kts
12-Aug-20 19:01 41.772788 -122.472313 47 2635ft 0kts
12-Aug-20 19:02 41.772788 -122.472313 47 2635ft 0kts
12-Aug-20 19:03 41.772624 -122.471439 102 2638ft 6kts
12-Aug-20 19:04 41.772608 -122.471324 94 2638ft 3kts
12-Aug-20 19:05 41.779121 -122.468707 11 2771ft 83kts
12-Aug-20 19:06 41.807804 -122.462189 8 3526ft 115kts
12-Aug-20 19:07 41.840533 -122.454419 8 4400ft 123kts
12-Aug-20 19:08 41.874786 -122.446164 5 5333ft 127kts
12-Aug-20 19:09 41.909825 -122.437720 4 6312ft 129kts
12-Aug-20 19:10 41.944774 -122.425381 44 7268ft 141kts
12-Aug-20 19:11 41.926377 -122.394799 210 8226ft 140kts
12-Aug-20 19:12 41.889782 -122.414333 202 9232ft 142kts
12-Aug-20 19:13 41.883031 -122.447293 337 10250ft 143kts
12-Aug-20 19:14 41.922577 -122.460493 327 11135ft 148kts
12-Aug-20 19:15 41.959418 -122.486681 319 12046ft 152kts
12-Aug-20 19:16 41.995577 -122.515564 318 13037ft 150kts
12-Aug-20 19:17 42.030971 -122.544321 319 14044ft 148kts
12-Aug-20 19:18 42.065883 -122.572774 319 14994ft 146kts
12-Aug-20 19:19 42.100556 -122.601094 320 15931ft 145kts
12-Aug-20 19:20 42.139321 -122.632837 321 16014ft 177kts
12-Aug-20 19:21 42.183017 -122.668582 321 16014ft 190kts
12-Aug-20 19:22 42.228885 -122.706162 322 16010ft 190kts
12-Aug-20 19:23 42.272707 -122.742161 321 16008ft 181kts
12-Aug-20 19:24 42.315678 -122.777551 321 16009ft 179kts
12-Aug-20 19:25 42.358453 -122.812827 321 16010ft 181kts
12-Aug-20 19:26 42.401389 -122.848285 321 16009ft 181kts
12-Aug-20 19:27 42.444413 -122.883878 321 16009ft 181kts
12-Aug-20 19:28 42.489740 -122.911981 355 16012ft 194kts
12-Aug-20 19:29 42.543745 -122.907014 356 16009ft 195kts
12-Aug-20 19:31 42.597768 -122.901969 356 16013ft 194kts
12-Aug-20 19:32 42.651535 -122.896951 356 16023ft 194kts
12-Aug-20 19:33 42.705479 -122.891864 356 16028ft 193kts
12-Aug-20 19:34 42.759254 -122.886862 356 16032ft 193kts
12-Aug-20 19:35 42.812949 -122.881786 356 16029ft 193kts
12-Aug-20 19:36 42.866621 -122.876734 355 16024ft 193kts
12-Aug-20 19:37 42.920015 -122.871730 355 16028ft 192kts
12-Aug-20 19:38 42.973379 -122.866673 355 16027ft 192kts
12-Aug-20 19:39 43.026892 -122.861597 355 16027ft 193kts
12-Aug-20 19:40 43.080330 -122.856534 355 16041ft 192kts
12-Aug-20 19:41 43.133342 -122.851480 356 16057ft 190kts
12-Aug-20 19:42 43.186154 -122.846466 355 16075ft 190kts
12-Aug-20 19:43 43.239009 -122.841445 355 16087ft 190kts
12-Aug-20 19:44 43.291881 -122.836397 355 16083ft 191kts
12-Aug-20 19:45 43.344876 -122.831315 355 16084ft 191kts
12-Aug-20 19:46 43.397851 -122.826241 355 16080ft 190kts
12-Aug-20 19:47 43.450485 -122.821185 355 16082ft 189kts
12-Aug-20 19:48 43.503108 -122.816143 355 16081ft 190kts
12-Aug-20 19:48 43.547204 -122.811869 355 16083ft 191kts
12-Aug-20 19:50 43.609004 -122.805920 355 16084ft 191kts
12-Aug-20 19:50 43.653169 -122.801675 355 16080ft 191kts
12-Aug-20 19:51 43.706383 -122.796534 355 15994ft 195kts
12-Aug-20 19:52 43.759932 -122.791307 355 15995ft 192kts
12-Aug-20 19:53 43.812554 -122.786199 355 15996ft 189kts
12-Aug-20 19:54 43.865112 -122.781078 355 16000ft 190kts
12-Aug-20 19:55 43.917871 -122.775936 355 16000ft 190kts
12-Aug-20 19:56 43.970392 -122.770803 355 16000ft 190kts
12-Aug-20 19:57 44.023095 -122.765640 355 15999ft 188kts
12-Aug-20 19:58 44.074862 -122.760569 355 15999ft 187kts
12-Aug-20 19:59 44.126728 -122.755481 355 16001ft 187kts
12-Aug-20 20:00 44.178439 -122.750404 355 16001ft 187kts
12-Aug-20 20:01 44.230305 -122.745309 355 16001ft 187kts
12-Aug-20 20:02 44.282094 -122.740215 355 16001ft 186kts
12-Aug-20 20:03 44.333746 -122.735122 354 16002ft 186kts
12-Aug-20 20:04 44.385209 -122.730041 355 15998ft 186kts
12-Aug-20 20:05 44.436951 -122.724914 355 15994ft 186kts
12-Aug-20 20:06 44.488244 -122.719838 355 15992ft 185kts
12-Aug-20 20:07 44.539496 -122.714765 355 15991ft 185kts
12-Aug-20 20:08 44.590889 -122.709640 355 15992ft 185kts
12-Aug-20 20:09 44.642113 -122.704511 355 15991ft 185kts
12-Aug-20 20:10 44.693364 -122.699372 355 15991ft 184kts
12-Aug-20 20:11 44.744528 -122.694236 355 15991ft 184kts
12-Aug-20 20:12 44.795454 -122.689111 355 15991ft 184kts
12-Aug-20 20:13 44.846538 -122.683966 355 15991ft 184kts
12-Aug-20 20:14 44.897305 -122.678840 355 15991ft 183kts
12-Aug-20 20:15 44.948183 -122.673696 355 15991ft 183kts
12-Aug-20 20:16 44.998965 -122.668551 355 15996ft 183kts
12-Aug-20 20:17 45.051860 -122.663223 356 15387ft 199kts
12-Aug-20 20:18 45.107773 -122.657494 356 14604ft 203kts
12-Aug-20 20:19 45.161193 -122.638209 56 13769ft 228kts
12-Aug-20 20:20 45.165992 -122.550138 41 12971ft 221kts
12-Aug-20 20:21 45.211241 -122.493763 34 12214ft 215kts
12-Aug-20 20:22 45.256813 -122.438391 34 10963ft 215kts
12-Aug-20 20:23 45.300870 -122.387812 34 8964ft 199kts
12-Aug-20 20:24 45.343636 -122.340328 29 6972ft 194kts
12-Aug-20 20:25 45.395367 -122.338348 356 4975ft 188kts
12-Aug-20 20:26 45.441857 -122.364941 325 3145ft 176kts
12-Aug-20 20:27 45.473707 -122.395168 325 3066ft 137kts
12-Aug-20 20:28 45.509585 -122.429122 326 2582ft 158kts
12-Aug-20 20:29 45.543825 -122.466979 304 1599ft 129kts
12-Aug-20 20:30 45.558378 -122.502084 300 1081ft 95kts
12-Aug-20 20:31 45.570901 -122.534234 300 583ft 91kts
12-Aug-20 20:32 45.582358 -122.563669 301 153ft 77kts
12-Aug-20 20:33 45.586341 -122.576369 201 25ft 2kts
12-Aug-20 20:34 45.586419 -122.577310 300 25ft 14kts
12-Aug-20 20:35 45.586419 -122.577310 300 25ft 14kts
12-Aug-20 20:36 45.586419 -122.577310 300 25ft 14kts
12-Aug-20 20:37 45.586419 -122.577310 300 25ft 14kts
12-Aug-20 20:38 45.586419 -122.577310 300 25ft 14kts
12-Aug-20 20:39 45.586419 -122.577310 300 25ft 14kts
12-Aug-20 20:40 45.586419 -122.577310 300 25ft 14kts
12-Aug-20 20:41 45.586419 -122.577310 300 25ft 14kts
12-Aug-20 20:42 45.586419 -122.577310 300 25ft 14kts
12-Aug-20 20:43 45.586419 -122.577310 300 25ft 14kts
12-Aug-20 20:44 45.586419 -122.577310 300 25ft 14kts
12-Aug-20 20:45 45.586419 -122.577310 300 25ft 14kts
12-Aug-20 20:46 45.586419 -122.577310 300 25ft 14kts
12-Aug-20 20:47 45.586419 -122.577310 300 25ft 14kts

Navigation Log

Ident Type
Flight plan parsing failed, navigation log unavailable